createdAt,value
2018-02-10T00:00:12.512Z,88.72
2018-02-10T00:01:18.277Z,92.62
2018-02-10T00:02:23.072Z,87.95
2018-02-10T00:03:28.149Z,92.32
2018-02-10T00:04:32.959Z,87.15
2018-02-10T00:05:38.379Z,85.10
2018-02-10T00:06:43.885Z,94.80
2018-02-10T00:07:48.808Z,87.88
2018-02-10T00:08:54.267Z,77.80
2018-02-10T00:09:59.562Z,78.43
2018-02-10T00:11:05.211Z,88.37
2018-02-10T00:12:09.930Z,88.85
2018-02-10T00:13:14.543Z,92.72
2018-02-10T00:14:20.080Z,81.37
2018-02-10T00:15:24.637Z,84.95
2018-02-10T00:16:29.411Z,90.53
2018-02-10T00:17:34.027Z,89.47
2018-02-10T00:18:38.646Z,81.93
2018-02-10T00:19:43.352Z,93.47
2018-02-10T00:20:48.074Z,90.90
2018-02-10T00:21:52.868Z,87.05
2018-02-10T00:22:57.509Z,86.18
2018-02-10T00:24:01.977Z,96.63
2018-02-10T00:25:06.533Z,87.70
2018-02-10T00:26:11.088Z,96.15
2018-02-10T00:27:16.683Z,87.28
2018-02-10T00:28:21.158Z,81.78
2018-02-10T00:29:25.719Z,86.65
2018-02-10T00:30:30.378Z,81.75
2018-02-10T00:31:35.208Z,93.05
2018-02-10T00:32:39.758Z,80.78
2018-02-10T00:33:44.290Z,94.57
2018-02-10T00:34:48.741Z,88.65
2018-02-10T00:35:53.190Z,93.97
2018-02-10T00:36:57.642Z,85.07
2018-02-10T00:38:02.866Z,80.62
2018-02-10T00:39:08.410Z,95.90
2018-02-10T00:40:13.620Z,86.47
2018-02-10T00:41:18.069Z,87.90
2018-02-10T00:42:22.518Z,94.93
2018-02-10T00:43:26.961Z,88.25
2018-02-10T00:44:32.206Z,97.03
2018-02-10T00:45:36.324Z,87.45
2018-02-10T00:46:40.771Z,78.95
2018-02-10T00:47:45.229Z,93.85
2018-02-10T00:48:50.437Z,83.85
2018-02-10T00:49:55.673Z,91.10
2018-02-10T00:51:00.894Z,84.13
2018-02-10T00:52:05.341Z,84.65
2018-02-10T00:53:09.804Z,90.85
2018-02-10T00:54:14.663Z,80.78
2018-02-10T00:55:19.897Z,90.20
2018-02-10T00:56:24.147Z,94.03
2018-02-10T00:57:28.618Z,91.25
2018-02-10T00:58:33.434Z,92.55
2018-02-10T00:59:38.633Z,85.75
2018-02-10T01:00:43.909Z,99.75
2018-02-10T01:01:48.361Z,89.90
2018-02-10T01:02:54.338Z,88.95
2018-02-10T01:03:59.573Z,88.70
2018-02-10T01:05:04.780Z,80.55
2018-02-10T01:06:10.029Z,90.07
2018-02-10T01:07:15.247Z,87.18
2018-02-10T01:08:20.466Z,83.35
2018-02-10T01:09:25.700Z,91.47
2018-02-10T01:10:30.920Z,85.60
2018-02-10T01:11:36.177Z,83.43
2018-02-10T01:12:40.640Z,85.12
2018-02-10T01:13:46.606Z,88.93
2018-02-10T01:14:51.064Z,96.10
2018-02-10T01:15:55.504Z,90.82
2018-02-10T01:16:59.979Z,88.72
2018-02-10T01:18:04.434Z,88.50
2018-02-10T01:19:08.906Z,87.57
2018-02-10T01:20:13.341Z,86.68
2018-02-10T01:21:17.791Z,89.00
2018-02-10T01:22:23.028Z,92.50
2018-02-10T01:23:28.243Z,93.30
2018-02-10T01:24:33.470Z,92.18
2018-02-10T01:25:37.912Z,78.80
2018-02-10T01:26:42.371Z,84.00
2018-02-10T01:27:46.854Z,94.43
2018-02-10T01:28:51.553Z,89.60
2018-02-10T01:29:56.755Z,88.50
2018-02-10T01:31:01.501Z,79.22
2018-02-10T01:32:05.945Z,88.10
2018-02-10T01:33:10.418Z,95.95
2018-02-10T01:34:14.873Z,91.30
2018-02-10T01:35:19.314Z,84.70
2018-02-10T01:36:23.767Z,84.82
2018-02-10T01:37:28.207Z,78.55
2018-02-10T01:38:32.677Z,82.65
2018-02-10T01:39:37.123Z,83.45
2018-02-10T01:40:41.578Z,90.35
2018-02-10T01:41:46.794Z,85.72
2018-02-10T01:42:51.241Z,82.20
2018-02-10T01:43:55.709Z,84.85
2018-02-10T01:45:00.164Z,84.15
2018-02-10T01:46:04.606Z,88.20
2018-02-10T01:47:08.738Z,89.18
2018-02-10T01:48:13.232Z,85.55
2018-02-10T01:49:17.905Z,91.07
2018-02-10T01:50:22.433Z,87.10
2018-02-10T01:51:26.886Z,90.43
2018-02-10T01:52:31.785Z,83.95
2018-02-10T01:53:36.217Z,81.47
2018-02-10T01:54:40.698Z,81.68
2018-02-10T01:55:44.805Z,78.72
2018-02-10T01:56:49.258Z,87.00
2018-02-10T01:57:54.475Z,87.28
2018-02-10T01:58:58.916Z,87.07
2018-02-10T02:00:03.400Z,88.40
2018-02-10T02:01:07.833Z,95.70
2018-02-10T02:02:12.286Z,89.25
2018-02-10T02:03:16.725Z,80.20
2018-02-10T02:04:21.482Z,90.03
2018-02-10T02:05:26.749Z,89.68
2018-02-10T02:06:31.205Z,94.62
2018-02-10T02:07:36.626Z,96.68
2018-02-10T02:08:41.844Z,88.22
2018-02-10T02:09:46.288Z,89.78
2018-02-10T02:10:50.772Z,88.03
2018-02-10T02:11:55.225Z,91.37
2018-02-10T02:12:59.984Z,89.32
2018-02-10T02:14:04.414Z,80.07
2018-02-10T02:15:08.860Z,83.85
2018-02-10T02:16:13.332Z,78.82
2018-02-10T02:17:17.794Z,84.72
2018-02-10T02:18:22.241Z,91.55
2018-02-10T02:19:26.690Z,86.43
2018-02-10T02:20:31.980Z,85.65
2018-02-10T02:21:36.435Z,92.22
2018-02-10T02:22:41.650Z,81.18
2018-02-10T02:23:46.861Z,82.97
2018-02-10T02:24:51.301Z,79.25
2018-02-10T02:25:55.745Z,86.22
2018-02-10T02:27:00.228Z,81.78
2018-02-10T02:28:05.441Z,80.40
2018-02-10T02:29:09.885Z,93.70
2018-02-10T02:30:14.434Z,81.10
2018-02-10T02:31:19.202Z,86.43
2018-02-10T02:32:24.433Z,101.30
2018-02-10T02:33:28.874Z,82.47
2018-02-10T02:34:33.313Z,86.05
2018-02-10T02:35:38.529Z,76.18
2018-02-10T02:36:42.972Z,91.00
2018-02-10T02:37:48.226Z,82.10
2018-02-10T02:38:52.681Z,89.90
2018-02-10T02:39:57.122Z,81.93
2018-02-10T02:41:02.352Z,84.93
2018-02-10T02:42:07.583Z,83.18
2018-02-10T02:43:12.041Z,76.60
2018-02-10T02:44:16.489Z,86.90
2018-02-10T02:45:21.705Z,88.97
2018-02-10T02:46:26.162Z,87.05
2018-02-10T02:47:31.372Z,80.85
2018-02-10T02:48:35.835Z,78.15
2018-02-10T02:49:40.276Z,80.70
2018-02-10T02:50:44.732Z,85.65
2018-02-10T02:51:49.173Z,84.53
2018-02-10T02:52:53.902Z,83.47
2018-02-10T02:53:58.518Z,86.82
2018-02-10T02:55:02.970Z,91.30
2018-02-10T02:56:08.185Z,85.07
2018-02-10T02:57:13.692Z,76.72
2018-02-10T02:58:18.147Z,86.30
2018-02-10T02:59:23.378Z,79.95
2018-02-10T03:00:27.825Z,86.32
2018-02-10T03:01:32.313Z,90.12
2018-02-10T03:02:36.753Z,84.60
2018-02-10T03:03:41.206Z,84.22
2018-02-10T03:04:46.440Z,90.53
2018-02-10T03:05:51.669Z,77.95
2018-02-10T03:06:56.878Z,81.40
2018-02-10T03:08:02.111Z,80.65
2018-02-10T03:09:06.552Z,81.15
2018-02-10T03:10:11.027Z,86.75
2018-02-10T03:11:15.477Z,88.90
2018-02-10T03:12:19.596Z,80.53
2018-02-10T03:13:24.049Z,81.85
2018-02-10T03:14:28.501Z,88.10
2018-02-10T03:15:33.064Z,84.90
2018-02-10T03:16:37.485Z,75.07
2018-02-10T03:17:41.929Z,86.28
2018-02-10T03:18:46.385Z,87.20
2018-02-10T03:19:50.825Z,76.60
2018-02-10T03:20:55.289Z,94.57
2018-02-10T03:21:59.732Z,80.45
2018-02-10T03:23:04.174Z,79.50
2018-02-10T03:24:09.388Z,86.47
2018-02-10T03:25:14.689Z,82.68
2018-02-10T03:26:19.160Z,85.22
2018-02-10T03:27:23.613Z,89.70
2018-02-10T03:28:28.057Z,84.20
2018-02-10T03:29:33.270Z,82.53
2018-02-10T03:30:37.733Z,77.20
2018-02-10T03:31:42.210Z,84.10
2018-02-10T03:32:47.426Z,91.37
2018-02-10T03:33:51.871Z,86.03
2018-02-10T03:34:56.316Z,74.50
2018-02-10T03:36:00.770Z,84.13
2018-02-10T03:37:06.013Z,81.68
2018-02-10T03:38:11.213Z,79.25
2018-02-10T03:39:15.650Z,76.20
2018-02-10T03:40:20.873Z,90.28
2018-02-10T03:41:26.087Z,80.80
2018-02-10T03:42:30.229Z,90.12
2018-02-10T03:43:34.368Z,86.65
2018-02-10T03:44:39.349Z,88.20
2018-02-10T03:45:44.599Z,78.95
2018-02-10T03:46:49.042Z,80.05
2018-02-10T03:47:53.515Z,91.45
2018-02-10T03:48:57.961Z,82.32
2018-02-10T03:50:02.413Z,82.65
2018-02-10T03:51:07.621Z,82.45
2018-02-10T03:52:12.832Z,89.80
2018-02-10T03:53:17.331Z,75.93
2018-02-10T03:54:21.780Z,79.72
2018-02-10T03:55:27.001Z,86.53
2018-02-10T03:56:31.443Z,84.82
2018-02-10T03:57:36.653Z,78.70
2018-02-10T03:58:41.892Z,90.55
2018-02-10T03:59:47.105Z,82.10
2018-02-10T04:00:51.566Z,73.87
2018-02-10T04:01:56.006Z,81.05
2018-02-10T04:03:00.469Z,87.95
2018-02-10T04:04:04.944Z,82.05
2018-02-10T04:05:09.389Z,77.40
2018-02-10T04:06:13.833Z,79.93
2018-02-10T04:07:18.285Z,72.47
2018-02-10T04:08:23.502Z,85.22
2018-02-10T04:09:27.973Z,87.18
2018-02-10T04:10:32.419Z,83.82
2018-02-10T04:11:36.869Z,82.45
2018-02-10T04:12:41.664Z,87.53
2018-02-10T04:13:46.093Z,86.65
2018-02-10T04:14:50.569Z,83.45
2018-02-10T04:15:55.017Z,84.00
2018-02-10T04:17:00.225Z,79.62
2018-02-10T04:18:05.440Z,80.57
2018-02-10T04:19:09.886Z,83.10
2018-02-10T04:20:14.357Z,82.88
2018-02-10T04:21:18.817Z,87.95
2018-02-10T04:22:23.262Z,84.60
2018-02-10T04:23:27.698Z,82.50
2018-02-10T04:24:32.137Z,79.47
2018-02-10T04:25:36.612Z,81.15
2018-02-10T04:26:41.048Z,83.68
2018-02-10T04:27:46.363Z,81.78
2018-02-10T04:28:50.992Z,72.85
2018-02-10T04:29:56.210Z,88.65
2018-02-10T04:31:00.682Z,80.15
2018-02-10T04:32:05.124Z,81.07
2018-02-10T04:33:09.573Z,78.95
2018-02-10T04:34:14.036Z,81.93
2018-02-10T04:35:18.477Z,94.10
2018-02-10T04:36:23.777Z,82.68
2018-02-10T04:37:28.200Z,78.75
2018-02-10T04:38:32.658Z,81.45
2018-02-10T04:39:37.093Z,87.05
2018-02-10T04:40:41.545Z,77.22
2018-02-10T04:41:46.926Z,88.53
2018-02-10T04:42:51.374Z,83.30
2018-02-10T04:43:55.812Z,83.20
2018-02-10T04:45:01.021Z,78.62
2018-02-10T04:46:05.476Z,78.30
2018-02-10T04:47:09.949Z,81.28
2018-02-10T04:48:14.433Z,78.07
2018-02-10T04:49:18.861Z,77.50
2018-02-10T04:50:24.810Z,77.43
2018-02-10T04:51:30.079Z,81.03
2018-02-10T04:52:34.627Z,80.55
2018-02-10T04:53:39.110Z,75.95
2018-02-10T04:54:43.581Z,80.93
2018-02-10T04:55:48.077Z,77.00
2018-02-10T04:56:52.569Z,79.37
2018-02-10T04:57:57.110Z,73.07
2018-02-10T04:59:01.550Z,76.68
2018-02-10T05:00:05.986Z,76.57
2018-02-10T05:01:10.422Z,78.30
2018-02-10T05:02:14.866Z,76.87
2018-02-10T05:03:20.105Z,79.87
2018-02-10T05:04:25.390Z,81.85
2018-02-10T05:05:29.829Z,79.40
2018-02-10T05:06:35.449Z,78.12
2018-02-10T05:07:40.121Z,85.90
2018-02-10T05:08:44.582Z,79.12
2018-02-10T05:09:49.342Z,80.85
2018-02-10T05:10:54.544Z,79.43
2018-02-10T05:12:00.017Z,82.03
2018-02-10T05:13:04.446Z,85.57
2018-02-10T05:14:08.937Z,75.87
2018-02-10T05:15:13.385Z,84.32
2018-02-10T05:16:17.837Z,75.53
2018-02-10T05:17:23.052Z,78.53
2018-02-10T05:18:27.489Z,79.47
2018-02-10T05:19:31.956Z,79.97
2018-02-10T05:20:36.401Z,84.20
2018-02-10T05:21:41.614Z,83.22
2018-02-10T05:22:46.294Z,78.28
2018-02-10T05:23:50.725Z,77.12
2018-02-10T05:24:55.193Z,82.50
2018-02-10T05:25:59.667Z,77.70
2018-02-10T05:27:04.101Z,74.40
2018-02-10T05:28:08.354Z,81.28
2018-02-10T05:29:12.809Z,84.75
2018-02-10T05:30:17.273Z,79.37
2018-02-10T05:31:21.725Z,84.30
2018-02-10T05:32:26.950Z,85.75
2018-02-10T05:33:32.161Z,83.43
2018-02-10T05:34:36.614Z,77.00
2018-02-10T05:35:41.164Z,79.37
2018-02-10T05:36:45.610Z,76.18
2018-02-10T05:37:50.822Z,79.60
2018-02-10T05:38:56.770Z,85.07
2018-02-10T05:40:01.353Z,71.80
2018-02-10T05:41:05.821Z,77.97
2018-02-10T05:42:11.030Z,82.82
2018-02-10T05:43:15.473Z,81.25
2018-02-10T05:44:19.924Z,77.32
2018-02-10T05:45:24.368Z,81.22
2018-02-10T05:46:29.614Z,82.10
2018-02-10T05:47:34.816Z,71.60
2018-02-10T05:48:39.258Z,82.82
2018-02-10T05:49:44.449Z,78.60
2018-02-10T05:50:48.888Z,74.78
2018-02-10T05:51:53.362Z,75.28
2018-02-10T05:52:57.822Z,74.65
2018-02-10T05:54:02.276Z,83.22
2018-02-10T05:55:06.733Z,81.57
2018-02-10T05:56:11.935Z,79.75
2018-02-10T05:57:16.419Z,72.70
2018-02-10T05:58:20.865Z,75.87
2018-02-10T05:59:25.301Z,77.90
2018-02-10T06:00:29.758Z,81.40
2018-02-10T06:01:34.198Z,79.35
2018-02-10T06:02:38.775Z,81.40
2018-02-10T06:03:43.211Z,69.62
2018-02-10T06:04:47.656Z,76.32
2018-02-10T06:05:52.115Z,81.35
2018-02-10T06:06:56.554Z,81.50
2018-02-10T06:08:01.800Z,69.12
2018-02-10T06:09:07.011Z,87.00
2018-02-10T06:10:12.245Z,76.20
2018-02-10T06:11:16.731Z,85.87
2018-02-10T06:12:21.177Z,80.40
2018-02-10T06:13:26.428Z,78.37
2018-02-10T06:14:30.880Z,85.30
2018-02-10T06:15:35.333Z,76.55
2018-02-10T06:16:40.542Z,76.97
2018-02-10T06:17:45.023Z,81.45
2018-02-10T06:18:49.679Z,73.78
2018-02-10T06:19:54.888Z,82.60
2018-02-10T06:21:00.112Z,80.35
2018-02-10T06:22:04.593Z,72.28
2018-02-10T06:23:09.045Z,75.62
2018-02-10T06:24:14.289Z,77.53
2018-02-10T06:25:19.169Z,83.65
2018-02-10T06:26:23.613Z,75.95
2018-02-10T06:27:28.829Z,78.00
2018-02-10T06:28:33.280Z,75.70
2018-02-10T06:29:37.744Z,80.47
2018-02-10T06:30:42.212Z,75.40
2018-02-10T06:31:46.968Z,75.85
2018-02-10T06:32:51.406Z,71.10
2018-02-10T06:33:56.654Z,73.60
2018-02-10T06:35:02.132Z,75.72
2018-02-10T06:36:06.585Z,78.07
2018-02-10T06:37:11.802Z,79.47
2018-02-10T06:38:16.298Z,74.32
2018-02-10T06:39:20.729Z,77.05
2018-02-10T06:40:26.002Z,73.00
2018-02-10T06:41:31.777Z,75.60
2018-02-10T06:42:36.205Z,74.78
2018-02-10T06:43:41.421Z,75.32
2018-02-10T06:44:45.868Z,67.65
2018-02-10T06:45:51.100Z,80.90
2018-02-10T06:46:55.545Z,72.10
2018-02-10T06:47:59.993Z,71.53
2018-02-10T06:49:04.444Z,70.30
2018-02-10T06:50:08.881Z,74.90
2018-02-10T06:51:13.356Z,72.50
2018-02-10T06:52:18.941Z,76.95
2018-02-10T06:53:23.381Z,72.78
2018-02-10T06:54:28.588Z,72.20
2018-02-10T06:55:33.041Z,67.85
2018-02-10T06:56:37.518Z,67.72
2018-02-10T06:57:41.960Z,72.90
2018-02-10T06:58:46.430Z,74.75
2018-02-10T06:59:50.867Z,73.95
2018-02-10T07:00:56.820Z,77.25
2018-02-10T07:02:02.070Z,70.00
2018-02-10T07:03:06.512Z,74.62
2018-02-10T07:04:10.970Z,72.68
2018-02-10T07:05:16.181Z,69.75
2018-02-10T07:06:20.623Z,73.40
2018-02-10T07:07:25.121Z,74.53
2018-02-10T07:08:30.341Z,72.50
2018-02-10T07:09:35.021Z,69.60
2018-02-10T07:10:39.524Z,68.75
2018-02-10T07:11:44.737Z,68.60
2018-02-10T07:12:49.233Z,70.95
2018-02-10T07:13:53.857Z,65.53
2018-02-10T07:14:58.310Z,71.05
2018-02-10T07:16:02.749Z,65.57
2018-02-10T07:17:07.969Z,76.35
2018-02-10T07:18:12.435Z,68.75
2018-02-10T07:19:16.896Z,61.78
2018-02-10T07:20:22.112Z,74.32
2018-02-10T07:21:26.553Z,69.75
2018-02-10T07:22:31.802Z,66.47
2018-02-10T07:23:36.284Z,69.07
2018-02-10T07:24:41.587Z,69.30
2018-02-10T07:25:46.037Z,69.82
2018-02-10T07:26:51.249Z,74.35
2018-02-10T07:27:56.478Z,70.30
2018-02-10T07:29:01.234Z,70.18
2018-02-10T07:30:05.709Z,69.40
2018-02-10T07:31:10.212Z,77.82
2018-02-10T07:32:14.643Z,70.30
2018-02-10T07:33:19.910Z,70.25
2018-02-10T07:34:24.409Z,76.15
2018-02-10T07:35:28.887Z,70.20
2018-02-10T07:36:34.198Z,71.62
2018-02-10T07:37:38.746Z,75.65
2018-02-10T07:38:44.314Z,79.43
2018-02-10T07:39:48.601Z,66.32
2018-02-10T07:40:53.037Z,66.37
2018-02-10T07:41:57.472Z,73.70
2018-02-10T07:43:02.250Z,66.93
2018-02-10T07:44:06.710Z,69.35
2018-02-10T07:45:11.592Z,74.05
2018-02-10T07:46:16.063Z,66.55
2018-02-10T07:47:20.545Z,77.68
2018-02-10T07:48:25.360Z,70.85
2018-02-10T07:49:29.850Z,70.68
2018-02-10T07:50:34.329Z,76.12
2018-02-10T07:51:39.001Z,67.03
2018-02-10T07:52:43.473Z,67.75
2018-02-10T07:53:48.026Z,73.70
2018-02-10T07:54:52.457Z,66.57
2018-02-10T07:55:56.962Z,67.82
2018-02-10T07:57:01.394Z,74.05
2018-02-10T07:58:06.594Z,62.97
2018-02-10T07:59:11.801Z,67.03
2018-02-10T08:00:16.251Z,65.57
2018-02-10T08:01:20.722Z,73.97
2018-02-10T08:02:25.160Z,61.95
2018-02-10T08:03:29.607Z,72.72
2018-02-10T08:04:34.824Z,55.55
2018-02-10T08:05:40.044Z,70.55
2018-02-10T08:06:44.500Z,75.80
2018-02-10T08:07:49.144Z,62.42
2018-02-10T08:08:53.743Z,63.05
2018-02-10T08:09:58.500Z,65.75
2018-02-10T08:11:03.252Z,71.75
2018-02-10T08:12:07.907Z,62.75
2018-02-10T08:13:12.415Z,67.45
2018-02-10T08:14:19.144Z,65.95
2018-02-10T08:15:23.805Z,61.05
2018-02-10T08:16:30.058Z,66.37
2018-02-10T08:17:35.528Z,60.33
2018-02-10T08:18:41.813Z,68.15
2018-02-10T08:19:46.318Z,68.90
2018-02-10T08:20:50.797Z,63.87
2018-02-10T08:21:56.053Z,54.13
2018-02-10T08:23:00.541Z,66.28
2018-02-10T08:24:05.878Z,58.85
2018-02-10T08:25:10.362Z,64.82
2018-02-10T08:26:14.986Z,57.28
2018-02-10T08:27:19.446Z,60.55
2018-02-10T08:28:24.046Z,63.10
2018-02-10T08:29:28.492Z,57.47
2018-02-10T08:30:33.782Z,57.17
2018-02-10T08:31:39.347Z,62.58
2018-02-10T08:32:43.813Z,57.67
2018-02-10T08:33:49.318Z,56.15
2018-02-10T08:34:53.748Z,58.42
2018-02-10T08:35:59.700Z,58.95
2018-02-10T08:37:04.171Z,57.00
2018-02-10T08:38:08.799Z,59.15
2018-02-10T08:39:13.452Z,60.17
2018-02-10T08:40:18.848Z,60.22
2018-02-10T08:41:24.079Z,57.88
2018-02-10T08:42:28.599Z,62.25
2018-02-10T08:43:33.046Z,64.07
2018-02-10T08:44:38.320Z,57.40
2018-02-10T08:45:42.833Z,65.35
2018-02-10T08:46:47.358Z,62.45
2018-02-10T08:47:51.809Z,55.67
2018-02-10T08:48:57.152Z,63.00
2018-02-10T08:50:01.712Z,57.28
2018-02-10T08:51:06.269Z,57.28
2018-02-10T08:52:11.601Z,64.43
2018-02-10T08:53:16.830Z,55.88
2018-02-10T08:54:22.270Z,58.53
2018-02-10T08:55:26.769Z,65.05
2018-02-10T08:56:32.192Z,61.60
2018-02-10T08:57:37.893Z,61.15
2018-02-10T08:58:42.366Z,60.10
2018-02-10T08:59:46.809Z,63.47
2018-02-10T09:00:51.293Z,55.58
2018-02-10T09:01:55.745Z,61.80
2018-02-10T09:03:00.186Z,62.85
2018-02-10T09:04:05.463Z,58.83
2018-02-10T09:05:09.909Z,56.72
2018-02-10T09:06:15.940Z,59.70
2018-02-10T09:07:20.770Z,58.92
2018-02-10T09:08:25.508Z,62.55
2018-02-10T09:09:29.960Z,54.50
2018-02-10T09:10:34.406Z,72.60
2018-02-10T09:11:38.877Z,57.83
2018-02-10T09:12:43.329Z,57.62
2018-02-10T09:13:47.783Z,64.03
2018-02-10T09:14:52.233Z,65.87
2018-02-10T09:15:57.450Z,57.05
2018-02-10T09:17:02.699Z,62.72
2018-02-10T09:18:07.151Z,57.62
2018-02-10T09:19:11.621Z,61.03
2018-02-10T09:20:16.067Z,59.80
2018-02-10T09:21:20.510Z,65.70
2018-02-10T09:22:25.004Z,56.37
2018-02-10T09:23:29.617Z,64.47
2018-02-10T09:24:35.176Z,55.42
2018-02-10T09:25:39.791Z,60.53
2018-02-10T09:26:45.411Z,57.17
2018-02-10T09:27:52.666Z,54.85
2018-02-10T09:28:57.403Z,59.20
2018-02-10T09:30:02.061Z,64.95
2018-02-10T09:31:10.031Z,57.80
2018-02-10T09:32:15.520Z,55.97
2018-02-10T09:33:22.080Z,62.22
2018-02-10T09:34:27.172Z,55.08
2018-02-10T09:35:32.411Z,66.55
2018-02-10T09:36:37.338Z,52.03
2018-02-10T09:37:43.366Z,55.15
2018-02-10T09:38:48.170Z,57.42
2018-02-10T09:39:53.133Z,54.15
2018-02-10T09:40:57.845Z,59.75
2018-02-10T09:42:02.615Z,53.83
2018-02-10T09:43:07.880Z,61.22
2018-02-10T09:44:12.565Z,58.97
2018-02-10T09:45:17.457Z,56.00
2018-02-10T09:46:22.152Z,60.97
2018-02-10T09:47:26.668Z,59.45
2018-02-10T09:48:31.163Z,55.42
2018-02-10T09:49:35.743Z,65.12
2018-02-10T09:50:41.434Z,55.00
2018-02-10T09:51:46.703Z,54.38
2018-02-10T09:52:51.274Z,61.60
2018-02-10T09:53:55.777Z,54.38
2018-02-10T09:55:00.504Z,55.45
2018-02-10T09:56:05.105Z,54.13
2018-02-10T09:57:09.620Z,48.05
2018-02-10T09:58:14.199Z,51.60
2018-02-10T09:59:18.681Z,51.85
2018-02-10T10:00:23.783Z,53.83
2018-02-10T10:01:28.292Z,49.55
2018-02-10T10:02:32.769Z,46.85
2018-02-10T10:03:38.542Z,37.22
2018-02-10T10:04:43.048Z,42.42
2018-02-10T10:05:47.505Z,46.00
2018-02-10T10:06:52.030Z,47.58
2018-02-10T10:07:56.508Z,51.50
2018-02-10T10:09:00.970Z,47.13
2018-02-10T10:10:05.425Z,49.97
2018-02-10T10:11:09.927Z,50.33
2018-02-10T10:12:14.936Z,46.15
2018-02-10T10:13:19.381Z,42.28
2018-02-10T10:14:25.702Z,45.97
2018-02-10T10:15:30.146Z,49.40
2018-02-10T10:16:35.432Z,46.50
2018-02-10T10:17:40.441Z,51.50
2018-02-10T10:18:44.866Z,46.00
2018-02-10T10:19:49.322Z,48.67
2018-02-10T10:20:55.116Z,49.08
2018-02-10T10:21:59.594Z,47.67
2018-02-10T10:23:04.880Z,43.13
2018-02-10T10:24:09.503Z,44.55
2018-02-10T10:25:14.720Z,49.65
2018-02-10T10:26:19.139Z,43.83
2018-02-10T10:27:23.629Z,48.53
2018-02-10T10:28:28.081Z,44.28
2018-02-10T10:29:33.294Z,47.22
2018-02-10T10:30:37.788Z,51.55
2018-02-10T10:31:42.221Z,52.97
2018-02-10T10:32:46.701Z,48.87
2018-02-10T10:33:51.149Z,48.72
2018-02-10T10:34:55.632Z,44.55
2018-02-10T10:36:00.065Z,45.05
2018-02-10T10:37:05.284Z,54.60
2018-02-10T10:38:10.817Z,51.03
2018-02-10T10:39:16.030Z,55.63
2018-02-10T10:40:20.548Z,42.92
2018-02-10T10:41:24.986Z,48.65
2018-02-10T10:42:30.227Z,43.58
2018-02-10T10:43:35.466Z,51.22
2018-02-10T10:44:39.921Z,44.30
2018-02-10T10:45:44.414Z,46.45
2018-02-10T10:46:48.970Z,48.30
2018-02-10T10:47:53.220Z,48.92
2018-02-10T10:48:57.773Z,48.40
2018-02-10T10:50:02.302Z,51.65
2018-02-10T10:51:06.738Z,47.95
2018-02-10T10:52:12.079Z,47.47
2018-02-10T10:53:16.694Z,42.75
2018-02-10T10:54:21.929Z,42.25
2018-02-10T10:55:27.265Z,42.62
2018-02-10T10:56:31.765Z,42.35
2018-02-10T10:57:36.225Z,45.67
2018-02-10T10:58:40.685Z,35.40
2018-02-10T10:59:47.076Z,30.88
2018-02-10T11:00:53.451Z,36.33
2018-02-10T11:01:58.087Z,40.55
2018-02-10T11:03:03.328Z,37.70
2018-02-10T11:04:08.696Z,29.55
2018-02-10T11:05:14.300Z,34.97
2018-02-10T11:06:19.701Z,34.90
2018-02-10T11:07:24.430Z,39.30
2018-02-10T11:08:30.464Z,34.25
2018-02-10T11:09:34.925Z,33.50
2018-02-10T11:10:39.458Z,35.65
2018-02-10T11:11:44.409Z,35.72
2018-02-10T11:12:49.127Z,37.17
2018-02-10T11:13:53.593Z,36.10
2018-02-10T11:14:58.044Z,36.60
2018-02-10T11:16:02.518Z,38.45
2018-02-10T11:17:06.982Z,38.85
2018-02-10T11:18:11.428Z,34.33
2018-02-10T11:19:15.887Z,34.90
2018-02-10T11:20:20.339Z,38.70
2018-02-10T11:21:25.599Z,32.22
2018-02-10T11:22:30.043Z,33.97
2018-02-10T11:23:34.493Z,39.30
2018-02-10T11:24:39.715Z,33.95
2018-02-10T11:25:45.017Z,42.15
2018-02-10T11:26:49.539Z,39.05
2018-02-10T11:27:53.982Z,39.05
2018-02-10T11:28:58.446Z,32.35
2018-02-10T11:30:02.922Z,38.10
2018-02-10T11:31:07.376Z,34.95
2018-02-10T11:32:11.846Z,35.33
2018-02-10T11:33:16.296Z,40.17
2018-02-10T11:34:20.736Z,42.42
2018-02-10T11:35:25.951Z,37.60
2018-02-10T11:36:30.406Z,37.40
2018-02-10T11:37:34.882Z,29.73
2018-02-10T11:38:40.341Z,38.17
2018-02-10T11:39:44.904Z,27.37
2018-02-10T11:40:49.362Z,30.40
2018-02-10T11:41:53.832Z,31.15
2018-02-10T11:42:59.890Z,35.30
2018-02-10T11:44:04.591Z,35.22
2018-02-10T11:45:09.808Z,38.55
2018-02-10T11:46:15.034Z,36.63
2018-02-10T11:47:19.484Z,37.72
2018-02-10T11:48:24.731Z,36.17
2018-02-10T11:49:29.980Z,36.05
2018-02-10T11:50:34.422Z,31.17
2018-02-10T11:51:38.882Z,48.28
2018-02-10T11:52:44.888Z,37.15
2018-02-10T11:53:49.461Z,37.80
2018-02-10T11:54:54.821Z,35.95
2018-02-10T11:55:59.448Z,38.28
2018-02-10T11:57:05.191Z,26.05
2018-02-10T11:58:09.486Z,30.05
2018-02-10T11:59:14.597Z,31.30
2018-02-10T12:00:19.049Z,22.42
2018-02-10T12:01:24.246Z,29.70
2018-02-10T12:02:28.743Z,31.85
2018-02-10T12:03:33.281Z,29.87
2018-02-10T12:04:37.785Z,29.87
2018-02-10T12:05:42.293Z,28.52
2018-02-10T12:06:46.751Z,26.17
2018-02-10T12:07:51.202Z,26.08
2018-02-10T12:08:55.674Z,26.35
2018-02-10T12:10:00.983Z,27.13
2018-02-10T12:11:05.453Z,28.60
2018-02-10T12:12:09.901Z,26.85
2018-02-10T12:13:14.355Z,27.62
2018-02-10T12:14:19.567Z,31.45
2018-02-10T12:15:24.817Z,31.15
2018-02-10T12:16:30.217Z,33.13
2018-02-10T12:17:35.906Z,29.00
2018-02-10T12:18:41.126Z,31.17
2018-02-10T12:19:45.622Z,30.98
2018-02-10T12:20:50.091Z,31.55
2018-02-10T12:21:54.629Z,33.75
2018-02-10T12:23:00.652Z,31.75
2018-02-10T12:24:05.192Z,28.55
2018-02-10T12:25:09.653Z,29.02
2018-02-10T12:26:14.521Z,26.45
2018-02-10T12:27:18.962Z,26.12
2018-02-10T12:28:24.184Z,25.70
2018-02-10T12:29:28.634Z,26.15
2018-02-10T12:30:33.186Z,26.50
2018-02-10T12:31:37.754Z,21.70
2018-02-10T12:32:42.261Z,27.35
2018-02-10T12:33:47.540Z,23.80
2018-02-10T12:34:51.978Z,29.65
2018-02-10T12:35:56.470Z,22.75
2018-02-10T12:37:01.000Z,23.50
2018-02-10T12:38:05.465Z,21.75
2018-02-10T12:39:10.135Z,19.83
2018-02-10T12:40:14.582Z,20.25
2018-02-10T12:41:19.056Z,20.48
2018-02-10T12:42:23.548Z,23.15
2018-02-10T12:43:28.083Z,21.10
2018-02-10T12:44:32.584Z,21.12
2018-02-10T12:45:37.030Z,22.17
2018-02-10T12:46:42.255Z,22.85
2018-02-10T12:47:53.089Z,19.70
2018-02-10T12:50:34.757Z,22.10
2018-02-10T12:51:39.208Z,20.30
2018-02-10T12:52:44.430Z,22.52
2018-02-10T12:53:49.678Z,23.45
2018-02-10T12:54:54.109Z,25.90
2018-02-10T12:55:58.557Z,22.35
2018-02-10T12:57:03.025Z,23.83
2018-02-10T12:58:07.469Z,24.58
2018-02-10T12:59:11.958Z,24.52
2018-02-10T13:00:16.416Z,24.10
2018-02-10T13:01:20.869Z,24.95
2018-02-10T13:02:25.331Z,22.52
2018-02-10T13:03:29.845Z,21.02
2018-02-10T13:04:34.333Z,20.85
2018-02-10T13:05:39.661Z,24.12
2018-02-10T13:06:44.201Z,24.02
2018-02-10T13:07:48.629Z,23.02
2018-02-10T13:08:53.085Z,22.08
2018-02-10T13:09:57.634Z,23.65
2018-02-10T13:11:02.148Z,23.42
2018-02-10T13:12:07.710Z,19.80
2018-02-10T13:13:12.147Z,27.08
2018-02-10T13:14:17.123Z,28.20
2018-02-10T13:15:21.644Z,25.55
2018-02-10T13:16:26.092Z,22.80
2018-02-10T13:17:30.541Z,24.55
2018-02-10T13:18:35.042Z,23.35
2018-02-10T13:19:39.597Z,24.87
2018-02-10T13:20:45.220Z,20.85
2018-02-10T13:21:51.199Z,24.30
2018-02-10T13:22:56.415Z,24.48
2018-02-10T13:24:00.878Z,23.70
2018-02-10T13:25:05.336Z,21.40
2018-02-10T13:26:10.594Z,25.05
2018-02-10T13:27:15.157Z,22.65
2018-02-10T13:28:20.794Z,23.12
2018-02-10T13:29:25.081Z,22.73
2018-02-10T13:30:29.645Z,23.83
2018-02-10T13:31:34.919Z,27.58
2018-02-10T13:32:39.958Z,27.35
2018-02-10T13:33:44.424Z,26.08
2018-02-10T13:34:50.420Z,27.55
2018-02-10T13:35:54.676Z,25.70
2018-02-10T13:36:59.154Z,23.15
2018-02-10T13:38:03.606Z,25.73
2018-02-10T13:39:08.047Z,29.98
2018-02-10T13:40:12.696Z,24.73
2018-02-10T13:41:17.218Z,27.55
2018-02-10T13:42:21.704Z,25.75
2018-02-10T13:43:26.150Z,27.15
2018-02-10T13:44:30.591Z,29.33
2018-02-10T13:45:35.857Z,27.00
2018-02-10T13:46:40.499Z,28.45
2018-02-10T13:47:44.935Z,28.77
2018-02-10T13:48:49.728Z,25.42
2018-02-10T13:49:54.275Z,25.95
2018-02-10T13:50:59.511Z,29.87
2018-02-10T13:52:03.953Z,29.67
2018-02-10T13:53:08.459Z,29.60
2018-02-10T13:54:12.902Z,27.80
2018-02-10T13:55:17.363Z,30.23